GEC76NB EBLG-EDDK
Flight info
| Callsign | GEC76NB |
|---|---|
| Flight time | 0h 19m |
| Altitude | 11000 |
| Route | KENUM |
| Aircraft | B77L/H-SDE1E2E3FGHIJ2J3J4J5M1RWXY/LB1D1 |
Departure
| Time | 2026-05-08 08:48 |
|---|---|
| Airport | Liège Airport (EBLG) |
Arrival
| Time | 2026-05-08 09:07 |
|---|---|
| Airport | Cologne Bonn Airport (EDDK) |
| Time | Latitude | Longitude | Altitude | Speed | Heading |
|---|---|---|---|---|---|
| 2026-05-08 08:12 | 50.64140 | 5.45604 | 612 ft | 0 kts | 141° |
| 2026-05-08 08:36 | 50.64157 | 5.45580 | 612 ft | 4 kts | 127° |
| 2026-05-08 08:36 | 50.64169 | 5.45543 | 628 ft | 4 kts | 104° |
| 2026-05-08 08:36 | 50.64173 | 5.45506 | 613 ft | 1 kts | 97° |
| 2026-05-08 08:37 | 50.64174 | 5.45498 | 613 ft | 0 kts | 97° |
| 2026-05-08 08:45 | 50.64205 | 5.45540 | 615 ft | 11 kts | 23° |
| 2026-05-08 08:45 | 50.64267 | 5.45612 | 611 ft | 12 kts | 45° |
| 2026-05-08 08:45 | 50.64326 | 5.45706 | 618 ft | 13 kts | 45° |
| 2026-05-08 08:45 | 50.64391 | 5.45809 | 624 ft | 14 kts | 45° |
| 2026-05-08 08:46 | 50.64459 | 5.45917 | 621 ft | 14 kts | 45° |
| 2026-05-08 08:46 | 50.64530 | 5.46030 | 614 ft | 15 kts | 45° |
| 2026-05-08 08:46 | 50.64604 | 5.46147 | 613 ft | 15 kts | 45° |
| 2026-05-08 08:46 | 50.64677 | 5.46225 | 603 ft | 11 kts | 358° |
| 2026-05-08 08:47 | 50.64737 | 5.46149 | 602 ft | 12 kts | 314° |
| 2026-05-08 08:47 | 50.64766 | 5.46048 | 602 ft | 9 kts | 253° |
| 2026-05-08 08:47 | 50.64731 | 5.45984 | 603 ft | 7 kts | 225° |
| 2026-05-08 08:47 | 50.64520 | 5.45649 | 622 ft | 88 kts | 225° |
| 2026-05-08 08:48 | 50.63885 | 5.44644 | 628 ft | 168 kts | 224° |
| 2026-05-08 08:48 | 50.62956 | 5.43206 | 1142 ft | 193 kts | 224° |
| 2026-05-08 08:48 | 50.62003 | 5.41705 | 2115 ft | 190 kts | 223° |
| 2026-05-08 08:48 | 50.61023 | 5.40271 | 2843 ft | 200 kts | 216° |
| 2026-05-08 08:49 | 50.59655 | 5.39461 | 3076 ft | 227 kts | 181° |
| 2026-05-08 08:49 | 50.58048 | 5.40047 | 3427 ft | 250 kts | 148° |
| 2026-05-08 08:49 | 50.56803 | 5.41979 | 4186 ft | 258 kts | 119° |
| 2026-05-08 08:49 | 50.56157 | 5.44629 | 4997 ft | 263 kts | 105° |
| 2026-05-08 08:50 | 50.55703 | 5.47446 | 5892 ft | 267 kts | 103° |
| 2026-05-08 08:50 | 50.55278 | 5.50306 | 6808 ft | 271 kts | 103° |
| 2026-05-08 08:50 | 50.54854 | 5.53210 | 7702 ft | 275 kts | 103° |
| 2026-05-08 08:50 | 50.54525 | 5.56171 | 8489 ft | 278 kts | 90° |
| 2026-05-08 08:51 | 50.54853 | 5.59193 | 9247 ft | 284 kts | 73° |
| 2026-05-08 08:51 | 50.55436 | 5.62168 | 10120 ft | 287 kts | 73° |
| 2026-05-08 08:51 | 50.55805 | 5.64043 | 10618 ft | 291 kts | 73° |
| 2026-05-08 08:52 | 50.56418 | 5.67138 | 11098 ft | 310 kts | 73° |
| 2026-05-08 08:52 | 50.57087 | 5.70500 | 11118 ft | 343 kts | 73° |
| 2026-05-08 08:52 | 50.57844 | 5.74295 | 11138 ft | 376 kts | 73° |
| 2026-05-08 08:53 | 50.58632 | 5.78248 | 11114 ft | 387 kts | 73° |
| 2026-05-08 08:53 | 50.59443 | 5.82307 | 11105 ft | 389 kts | 73° |
| 2026-05-08 08:53 | 50.60254 | 5.86364 | 11102 ft | 389 kts | 73° |
| 2026-05-08 08:53 | 50.61148 | 5.90389 | 11103 ft | 389 kts | 66° |
| 2026-05-08 08:54 | 50.62401 | 5.94154 | 11115 ft | 389 kts | 58° |
| 2026-05-08 08:54 | 50.63915 | 5.97675 | 11101 ft | 389 kts | 55° |
| 2026-05-08 08:54 | 50.65452 | 6.01178 | 11124 ft | 389 kts | 56° |
| 2026-05-08 08:54 | 50.66983 | 6.04699 | 11122 ft | 389 kts | 56° |
| 2026-05-08 08:55 | 50.68509 | 6.08222 | 11104 ft | 389 kts | 56° |
| 2026-05-08 08:55 | 50.70029 | 6.11743 | 11110 ft | 389 kts | 56° |
| 2026-05-08 08:55 | 50.71546 | 6.15271 | 11118 ft | 385 kts | 56° |
| 2026-05-08 08:55 | 50.73024 | 6.18716 | 11086 ft | 374 kts | 56° |
| 2026-05-08 08:56 | 50.74465 | 6.22077 | 10914 ft | 364 kts | 56° |
| 2026-05-08 08:56 | 50.75857 | 6.25333 | 10765 ft | 351 kts | 56° |
| 2026-05-08 08:56 | 50.77199 | 6.28472 | 10617 ft | 338 kts | 56° |
| 2026-05-08 08:56 | 50.78490 | 6.31495 | 10480 ft | 326 kts | 56° |
| 2026-05-08 08:57 | 50.79734 | 6.34410 | 10346 ft | 314 kts | 56° |
| 2026-05-08 08:57 | 50.80935 | 6.37230 | 10210 ft | 303 kts | 56° |
| 2026-05-08 08:57 | 50.82086 | 6.39936 | 10061 ft | 292 kts | 56° |
| 2026-05-08 08:57 | 50.83215 | 6.42593 | 9734 ft | 289 kts | 56° |
| 2026-05-08 08:58 | 50.84324 | 6.45207 | 9430 ft | 284 kts | 56° |
| 2026-05-08 08:58 | 50.85411 | 6.47767 | 9115 ft | 281 kts | 56° |
| 2026-05-08 08:58 | 50.86491 | 6.50316 | 8798 ft | 277 kts | 56° |
| 2026-05-08 08:58 | 50.87553 | 6.52831 | 8496 ft | 273 kts | 56° |
| 2026-05-08 08:59 | 50.88602 | 6.55311 | 8182 ft | 269 kts | 56° |
| 2026-05-08 08:59 | 50.89633 | 6.57749 | 7889 ft | 265 kts | 56° |
| 2026-05-08 08:59 | 50.90648 | 6.60154 | 7592 ft | 260 kts | 56° |
| 2026-05-08 08:59 | 50.91644 | 6.62516 | 7303 ft | 255 kts | 57° |
| 2026-05-08 09:00 | 50.92619 | 6.64836 | 7022 ft | 251 kts | 56° |
| 2026-05-08 09:00 | 50.93596 | 6.67153 | 6748 ft | 255 kts | 56° |
| 2026-05-08 09:00 | 50.94593 | 6.69521 | 6459 ft | 261 kts | 56° |
| 2026-05-08 09:00 | 50.95603 | 6.71924 | 6175 ft | 262 kts | 57° |
| 2026-05-08 09:01 | 50.96604 | 6.74307 | 5868 ft | 258 kts | 56° |
| 2026-05-08 09:01 | 50.97586 | 6.76652 | 5564 ft | 253 kts | 57° |
| 2026-05-08 09:01 | 50.98554 | 6.78966 | 5210 ft | 251 kts | 57° |
| 2026-05-08 09:01 | 50.99521 | 6.81266 | 4892 ft | 250 kts | 57° |
| 2026-05-08 09:02 | 51.00482 | 6.83562 | 4672 ft | 249 kts | 57° |
| 2026-05-08 09:02 | 51.01418 | 6.85806 | 4506 ft | 243 kts | 57° |
| 2026-05-08 09:02 | 51.02262 | 6.88031 | 4266 ft | 230 kts | 70° |
| 2026-05-08 09:02 | 51.02359 | 6.90494 | 4054 ft | 218 kts | 106° |
| 2026-05-08 09:03 | 51.01628 | 6.92467 | 3826 ft | 206 kts | 130° |
| 2026-05-08 09:03 | 51.00715 | 6.94160 | 3581 ft | 197 kts | 130° |
| 2026-05-08 09:03 | 50.99803 | 6.95724 | 3355 ft | 189 kts | 134° |
| 2026-05-08 09:03 | 50.98856 | 6.97166 | 3090 ft | 184 kts | 136° |
| 2026-05-08 09:04 | 50.97943 | 6.98508 | 2836 ft | 178 kts | 136° |
| 2026-05-08 09:04 | 50.97036 | 6.99834 | 2586 ft | 172 kts | 137° |
| 2026-05-08 09:04 | 50.96171 | 7.01090 | 2379 ft | 171 kts | 137° |
| 2026-05-08 09:04 | 50.95284 | 7.02381 | 2185 ft | 171 kts | 137° |
| 2026-05-08 09:05 | 50.94410 | 7.03652 | 1942 ft | 170 kts | 137° |
| 2026-05-08 09:05 | 50.93549 | 7.04910 | 1708 ft | 171 kts | 137° |
| 2026-05-08 09:05 | 50.92685 | 7.06173 | 1470 ft | 169 kts | 137° |
| 2026-05-08 09:05 | 50.91807 | 7.07446 | 1260 ft | 170 kts | 137° |
| 2026-05-08 09:06 | 50.90918 | 7.08631 | 1021 ft | 162 kts | 144° |
| 2026-05-08 09:06 | 50.90132 | 7.09763 | 788 ft | 149 kts | 131° |
| 2026-05-08 09:06 | 50.89457 | 7.10889 | 624 ft | 136 kts | 137° |
| 2026-05-08 09:06 | 50.88754 | 7.11880 | 408 ft | 135 kts | 137° |
| 2026-05-08 09:07 | 50.88069 | 7.12881 | 301 ft | 135 kts | 138° |
| 2026-05-08 09:07 | 50.87430 | 7.13800 | 246 ft | 111 kts | 137° |
| 2026-05-08 09:07 | 50.86992 | 7.14439 | 260 ft | 57 kts | 137° |
| 2026-05-08 09:07 | 50.86825 | 7.14680 | 270 ft | 19 kts | 137° |
| 2026-05-08 09:08 | 50.86753 | 7.14760 | 272 ft | 9 kts | 180° |
| 2026-05-08 09:08 | 50.86710 | 7.14680 | 271 ft | 11 kts | 244° |
| 2026-05-08 09:08 | 50.86675 | 7.14565 | 271 ft | 13 kts | 245° |
| 2026-05-08 09:08 | 50.86671 | 7.14447 | 268 ft | 11 kts | 308° |
| 2026-05-08 09:09 | 50.86731 | 7.14358 | 266 ft | 13 kts | 317° |
| 2026-05-08 09:09 | 50.86808 | 7.14245 | 260 ft | 17 kts | 317° |
| 2026-05-08 09:09 | 50.86868 | 7.14158 | 259 ft | 17 kts | 317° |
| 2026-05-08 09:09 | 50.86922 | 7.13992 | 256 ft | 19 kts | 279° |
| 2026-05-08 09:10 | 50.87001 | 7.13811 | 248 ft | 22 kts | 318° |
| 2026-05-08 09:10 | 50.87105 | 7.13659 | 244 ft | 20 kts | 317° |
| 2026-05-08 09:10 | 50.87208 | 7.13511 | 240 ft | 21 kts | 317° |
| 2026-05-08 09:10 | 50.87316 | 7.13355 | 237 ft | 19 kts | 317° |
| 2026-05-08 09:11 | 50.87390 | 7.13248 | 237 ft | 14 kts | 317° |
| 2026-05-08 09:11 | 50.87434 | 7.13183 | 237 ft | 0 kts | 317° |
| 2026-05-08 09:11 | 50.87437 | 7.13161 | 237 ft | 6 kts | 271° |
| 2026-05-08 09:11 | 50.87415 | 7.13100 | 237 ft | 7 kts | 229° |
| 2026-05-08 09:12 | 50.87391 | 7.13059 | 237 ft | 2 kts | 227° |
| 2026-05-08 09:12 | 50.87390 | 7.13058 | 237 ft | 0 kts | 227° |